Terminal Aerodrome Forecast
Issued by NWS

Home | Current Version | Previous Version | Text Only | Print | Product List | Glossary On
Versions: 1 2 3 4 5 6 7 8 9 10 11 12 13 14 15 16 17 18 19 20 21 22 23 24 25 26 27 28 29 30 31 32 33 34 35 36 37 38 39 40
000
FTUS43 KDDC 221346 AAB
TAFHYS
TAF AMD
KHYS 221346Z 2214/2312 22003KT 0SM FG OVC001
      TEMPO 2214/2216 2SM BR OVC004
     FM221600 20012KT P6SM SCT250
     FM230300 18010KT 4SM BR SCT200=

USA.gov is the U.S. government's official web portal to all federal, state and local government web resources and services.